Terminal Aerodrome Forecast
Issued by NWS Northern Indiana

Home | Current Version | Previous Version | Graphics & Text | Print | Product List | Glossary On
Versions: 1 2 3 4 5 6 7 8 9 10 11 12 13 14 15 16 17 18
000
FTUS43 KIWX 221139
TAFFWA
TAF
KFWA 221139Z 2212/2312 08013KT P6SM -FZRAPL BKN050
      TEMPO 2212/2215 -PL
     FM221500 06010KT P6SM -RA OVC010
     FM221700 07011KT P6SM OVC010
     FM230400 08010KT P6SM OVC008
     FM230600 09010KT 4SM -RA BR OVC005=

USA.gov is the U.S. government's official web portal to all federal, state and local government web resources and services.